Time;durP1;ratioP1;P1;durP2;ratioP2;P2;SDS_P1;SDS_P2;PMS_P1;PMS_P2;Temp;Humidity;BMP_temperature;BMP_pressure;BME280_temperature;BME280_humidity;BME280_pressure;Samples;Min_cycle;Max_cycle;Signal;HPM_P1;HPM_P2
2022/11/11 00:01:00;;;;;;;49.80;29.33;;;9.00;99.90;;;;;;4196719;28;20025;-62
2022/11/11 00:03:01;;;;;;;;;;;9.00;99.90;;;;;;4197136;28;20094;-62
2022/11/11 00:05:03;;;;;;;49.60;24.73;;;9.10;99.90;;;;;;4195974;28;19973;-62
2022/11/11 00:07:04;;;;;;;54.97;25.93;;;9.00;99.90;;;;;;4197346;28;20067;-62
2022/11/11 00:09:05;;;;;;;45.97;24.87;;;9.10;99.90;;;;;;4196244;28;20037;-62
2022/11/11 00:11:09;;;;;;;42.17;22.40;;;9.10;99.90;;;;;;4197194;28;20361;-62
2022/11/11 00:13:10;;;;;;;42.10;22.57;;;9.10;99.90;;;;;;4196374;28;20608;-63
2022/11/11 00:15:11;;;;;;;40.77;21.63;;;9.10;99.90;;;;;;4196465;28;20033;-62
2022/11/11 00:27:01;;;;;;;47.37;22.97;;;9.20;99.90;;;;;;4188011;28;20090;-62
2022/11/11 00:29:03;;;;;;;42.70;22.50;;;9.20;99.90;;;;;;4197153;28;20085;-63
2022/11/11 00:31:09;;;;;;;47.53;25.10;;;9.20;99.90;;;;;;4196211;28;20078;-63
2022/11/11 00:33:10;;;;;;;43.37;23.20;;;9.20;99.90;;;;;;4197021;28;20066;-62
2022/11/11 00:37:33;;;;;;;46.85;21.45;;;9.20;99.90;;;;;;4196763;28;20097;-62
2022/11/11 00:39:34;;;;;;;44.80;24.73;;;9.20;99.90;;;;;;4194985;28;20044;-62
2022/11/11 00:41:35;;;;;;;43.70;23.83;;;9.30;99.90;;;;;;4196911;28;20101;-63
2022/11/11 00:43:36;;;;;;;43.27;23.17;;;9.20;99.90;;;;;;4195687;28;20557;-63
2022/11/11 00:45:37;;;;;;;43.00;23.07;;;9.20;99.90;;;;;;4196535;28;20412;-64
2022/11/11 00:52:17;;;;;;;41.73;23.00;;;9.20;99.90;;;;;;4195634;28;20542;-64
2022/11/11 00:54:18;;;;;;;43.67;23.17;;;9.20;99.90;;;;;;4195516;28;20028;-64
2022/11/11 00:56:20;;;;;;;41.97;22.17;;;9.30;99.90;;;;;;4195711;28;20029;-64
2022/11/11 00:58:22;;;;;;;42.57;23.87;;;9.30;99.90;;;;;;4195347;28;20028;-63
2022/11/11 01:00:23;;;;;;;45.70;23.80;;;9.30;99.90;;;;;;4192634;28;20063;-62
2022/11/11 01:02:25;;;;;;;44.37;23.23;;;9.30;99.90;;;;;;4178362;28;20045;-64
2022/11/11 01:04:26;;;;;;;44.80;23.80;;;9.30;99.90;;;;;;4179088;28;20497;-64
2022/11/11 01:06:27;;;;;;;47.47;25.77;;;9.30;99.90;;;;;;4178997;28;20021;-64
2022/11/11 01:08:29;;;;;;;45.20;23.53;;;9.30;99.90;;;;;;4179820;28;20025;-64
2022/11/11 01:10:42;;;;;;;48.10;23.47;;;9.30;99.90;;;;;;4178790;28;20025;-62
2022/11/11 01:12:43;;;;;;;45.13;24.43;;;9.40;99.90;;;;;;4179828;28;20036;-63
2022/11/11 01:14:44;;;;;;;48.57;24.47;;;9.40;99.90;;;;;;4178755;28;20087;-64
2022/11/11 01:16:45;;;;;;;45.87;23.67;;;9.40;99.90;;;;;;4179861;28;20385;-63
2022/11/11 01:18:47;;;;;;;44.40;22.37;;;9.40;99.90;;;;;;4178474;28;20091;-63
2022/11/11 01:20:57;;;;;;;42.67;22.57;;;9.40;99.90;;;;;;4179702;28;20037;-62
2022/11/11 01:22:58;;;;;;;49.35;23.92;;;9.40;99.90;;;;;;4178509;28;20078;-63
2022/11/11 01:25:00;;;;;;;49.23;23.83;;;9.50;99.90;;;;;;4179772;28;20021;-63
2022/11/11 01:27:01;;;;;;;45.23;23.03;;;9.50;99.90;;;;;;4177738;28;20083;-63
2022/11/11 01:29:02;;;;;;;37.57;20.87;;;9.50;99.90;;;;;;4178330;28;20365;-63
2022/11/11 01:31:11;;;;;;;48.40;23.57;;;9.50;99.90;;;;;;4161237;28;20018;-63
2022/11/11 01:33:12;;;;;;;43.13;22.30;;;9.50;99.90;;;;;;4179217;28;20075;-64
2022/11/11 01:35:13;;;;;;;46.60;22.10;;;9.50;99.90;;;;;;4178717;28;20029;-63
2022/11/11 01:37:14;;;;;;;41.80;22.03;;;9.60;99.90;;;;;;4183809;28;20048;-62
2022/11/11 01:39:15;;;;;;;49.57;22.07;;;9.60;99.90;;;;;;4195240;28;20044;-63
2022/11/11 01:41:36;;;;;;;44.87;20.30;;;9.60;99.90;;;;;;4194942;28;20093;-63
2022/11/11 01:43:37;;;;;;;40.80;20.43;;;9.60;99.90;;;;;;4194618;28;20427;-63
2022/11/11 01:46:00;;;;;;;44.30;21.87;;;9.60;99.90;;;;;;4194098;28;20048;-62
2022/11/11 01:50:20;;;;;;;45.20;23.07;;;9.70;99.90;;;;;;4195656;28;20550;-63
2022/11/11 01:52:33;;;;;;;45.17;22.57;;;9.70;99.90;;;;;;4194414;28;20036;-62
2022/11/11 01:54:52;;;;;;;38.40;18.90;;;9.70;99.90;;;;;;4195186;28;20020;-62
2022/11/11 01:57:02;;;;;;;35.03;18.00;;;9.70;99.90;;;;;;4194789;28;20067;-63
2022/11/11 01:59:08;;;;;;;41.43;19.43;;;9.70;99.90;;;;;;4194482;28;20048;-63
2022/11/11 02:01:09;;;;;;;58.20;29.23;;;9.70;99.90;;;;;;4195128;28;20028;-63
2022/11/11 02:03:13;;;;;;;56.73;30.87;;;9.70;99.90;;;;;;4195543;28;20058;-64
2022/11/11 02:09:51;;;;;;;47.00;22.63;;;9.70;99.90;;;;;;4420730;23;20056;-63
2022/11/11 02:16:34;;;;;;;52.67;22.97;;;9.70;99.90;;;;;;4177712;28;20102;-63
2022/11/11 02:18:36;;;;;;;50.30;26.00;;;9.70;99.90;;;;;;4178760;28;20025;-63
2022/11/11 02:20:43;;;;;;;42.33;20.87;;;9.70;99.90;;;;;;4177119;28;20041;-62
2022/11/11 02:22:54;;;;;;;38.50;18.27;;;9.70;99.90;;;;;;4178111;28;20091;-63
2022/11/11 02:24:55;;;;;;;37.13;17.17;;;9.70;99.90;;;;;;4177693;28;20845;-63
2022/11/11 02:26:58;;;;;;;39.57;19.43;;;9.70;99.90;;;;;;4178629;28;20423;-64
2022/11/11 02:29:01;;;;;;;33.30;16.97;;;9.80;99.90;;;;;;4160142;28;20037;-64
2022/11/11 02:31:03;;;;;;;41.60;18.13;;;9.70;99.90;;;;;;4161828;28;20045;-64
2022/11/11 02:33:04;;;;;;;35.80;17.17;;;9.70;99.90;;;;;;4160035;28;20437;-62
2022/11/11 02:35:15;;;;;;;33.33;16.53;;;9.80;99.90;;;;;;4161879;28;20041;-62
2022/11/11 02:37:21;;;;;;;46.17;24.90;;;9.70;99.90;;;;;;4161144;28;20105;-63
2022/11/11 02:39:23;;;;;;;33.67;18.27;;;9.70;99.90;;;;;;4160813;28;20049;-63
2022/11/11 02:43:43;;;;;;;34.60;17.53;;;9.70;99.90;;;;;;4161729;28;20076;-62
2022/11/11 02:45:44;;;;;;;37.37;20.77;;;9.70;99.90;;;;;;4161191;28;20076;-63
2022/11/11 02:47:45;;;;;;;35.27;18.37;;;9.70;99.90;;;;;;4161436;28;20029;-63
2022/11/11 02:49:47;;;;;;;37.07;18.00;;;9.70;99.90;;;;;;4161004;28;20076;-63
2022/11/11 02:51:48;;;;;;;31.53;16.43;;;9.70;99.90;;;;;;4160541;28;20453;-62
2022/11/11 02:53:49;;;;;;;30.27;14.90;;;9.70;99.90;;;;;;4161227;28;20476;-61
2022/11/11 02:55:50;;;;;;;34.10;17.43;;;9.70;99.90;;;;;;4160655;28;20447;-63
2022/11/11 02:57:51;;;;;;;33.60;15.97;;;9.70;99.90;;;;;;4161921;28;20075;-62
2022/11/11 02:59:53;;;;;;;30.73;16.00;;;9.70;99.90;;;;;;4160600;28;20037;-63
2022/11/11 03:01:54;;;;;;;33.73;17.23;;;9.70;99.90;;;;;;4161869;28;20030;-63
2022/11/11 03:03:55;;;;;;;32.97;17.90;;;9.60;99.90;;;;;;4164107;28;20547;-63
2022/11/11 03:05:56;;;;;;;33.60;15.50;;;9.70;99.90;;;;;;4178274;28;20017;-63
2022/11/11 03:07:57;;;;;;;37.20;18.13;;;9.70;99.90;;;;;;4176579;28;20041;-62
2022/11/11 03:09:58;;;;;;;33.00;17.70;;;9.70;99.90;;;;;;4178245;28;20488;-63
2022/11/11 03:12:00;;;;;;;36.67;17.97;;;9.70;99.90;;;;;;4177482;28;20087;-61
2022/11/11 03:14:01;;;;;;;27.40;14.83;;;9.70;99.90;;;;;;4178143;28;20029;-63
2022/11/11 03:16:02;;;;;;;32.10;15.07;;;9.70;99.90;;;;;;4177281;28;20354;-63
2022/11/11 03:18:03;;;;;;;29.50;14.47;;;9.70;99.90;;;;;;4176818;28;20029;-63
2022/11/11 03:22:28;;;;;;;24.37;13.00;;;9.70;99.90;;;;;;4177841;28;20090;-63
2022/11/11 03:26:49;;;;;;;22.50;12.10;;;9.60;99.90;;;;;;4177278;28;20033;-64
2022/11/11 03:28:51;;;;;;;26.53;13.30;;;9.60;99.90;;;;;;4177621;28;20114;-62
2022/11/11 03:30:52;;;;;;;23.80;12.43;;;9.60;99.90;;;;;;4177366;28;20419;-62
2022/11/11 03:32:53;;;;;;;24.27;11.83;;;9.60;99.90;;;;;;4177667;28;20025;-63
2022/11/11 03:34:55;;;;;;;22.73;11.90;;;9.60;99.90;;;;;;4176978;28;20469;-61
2022/11/11 03:39:15;;;;;;;26.70;12.70;;;9.60;99.90;;;;;;4176764;28;20538;-62
2022/11/11 03:41:16;;;;;;;27.33;13.33;;;9.60;99.90;;;;;;4178346;28;20029;-63
2022/11/11 03:43:19;;;;;;;27.53;15.30;;;9.60;99.90;;;;;;4176679;28;20021;-64
2022/11/11 03:45:20;;;;;;;27.50;13.23;;;9.60;99.90;;;;;;4178047;28;20059;-61
2022/11/11 03:47:21;;;;;;;23.13;11.97;;;9.60;99.90;;;;;;4174748;28;20099;-61
2022/11/11 03:49:22;;;;;;;23.63;13.00;;;9.60;99.90;;;;;;4177965;28;20064;-64
2022/11/11 03:51:23;;;;;;;26.27;13.70;;;9.60;99.90;;;;;;4176708;28;20048;-62
2022/11/11 03:53:25;;;;;;;26.30;14.37;;;9.60;99.90;;;;;;4159467;28;20082;-63
2022/11/11 03:55:27;;;;;;;25.17;12.63;;;9.60;99.90;;;;;;4176480;28;20075;-62
2022/11/11 03:57:31;;;;;;;24.77;12.10;;;9.60;99.90;;;;;;4177855;28;20518;-62
2022/11/11 03:59:32;;;;;;;23.53;13.20;;;9.60;99.90;;;;;;4175845;28;20053;-62
2022/11/11 04:10:52;;;;;;;27.90;14.90;;;9.70;99.90;;;;;;4181082;28;20122;-63
2022/11/11 04:17:33;;;;;;;21.23;12.77;;;9.70;99.90;;;;;;4194679;28;20086;-63
2022/11/11 04:21:53;;;;;;;26.40;13.53;;;9.60;99.90;;;;;;4196118;28;20078;-62
2022/11/11 04:23:55;;;;;;;23.07;13.20;;;9.60;99.90;;;;;;4197270;28;20471;-60
2022/11/11 04:26:00;;;;;;;29.07;13.60;;;9.60;99.90;;;;;;4194952;28;20082;-64
2022/11/11 04:30:31;;;;;;;27.08;11.90;;;9.60;99.90;;;;;;4116410;28;20043;-62
2022/11/11 04:32:37;;;;;;;28.30;13.93;;;9.60;99.90;;;;;;4165031;28;20074;-61
2022/11/11 04:34:39;;;;;;;24.87;12.90;;;9.60;99.90;;;;;;4179288;28;20062;-62
2022/11/11 04:36:40;;;;;;;29.17;13.93;;;9.60;99.90;;;;;;4183606;28;20357;-62
2022/11/11 04:41:04;;;;;;;25.15;12.82;;;9.60;99.90;;;;;;4189277;28;20083;-63
2022/11/11 04:43:05;;;;;;;28.43;13.40;;;9.60;99.90;;;;;;4178170;28;20036;-63
2022/11/11 04:45:27;;;;;;;25.87;12.47;;;9.60;99.90;;;;;;4178236;28;20063;-62
2022/11/11 04:47:29;;;;;;;24.20;12.20;;;9.60;99.90;;;;;;4187765;28;20028;-64
2022/11/11 04:49:30;;;;;;;23.30;11.93;;;9.60;99.90;;;;;;4182955;28;20049;-62
2022/11/11 04:52:25;;;;;;;23.40;12.50;;;9.60;99.90;;;;;;4177783;28;20106;-63
2022/11/11 04:53:52;;;;;;;22.47;12.07;;;9.60;99.90;;;;;;4184593;28;20082;-63
2022/11/11 04:58:13;;;;;;;22.70;10.65;;;9.50;99.90;;;;;;4184640;28;20102;-63
2022/11/11 05:00:17;;;;;;;18.30;9.87;;;9.50;99.90;;;;;;4175263;28;20099;-64
2022/11/11 05:04:38;;;;;;;23.60;11.88;;;9.50;99.90;;;;;;4177681;28;20033;-63
2022/11/11 05:08:59;;;;;;;23.63;12.77;;;9.50;99.90;;;;;;4177330;28;20106;-63
2022/11/11 05:11:00;;;;;;;17.97;11.37;;;9.50;99.90;;;;;;4185773;28;20090;-64
2022/11/11 05:22:29;;;;;;;20.90;11.10;;;9.40;99.90;;;;;;4178314;28;20147;-62
2022/11/11 05:26:50;;;;;;;16.50;10.67;;;9.50;99.90;;;;;;4193084;28;20125;-63
2022/11/11 05:28:51;;;;;;;22.77;11.53;;;9.40;99.90;;;;;;4191916;28;20040;-63
2022/11/11 05:30:52;;;;;;;20.37;10.10;;;9.40;99.90;;;;;;4167298;28;20037;-63
2022/11/11 05:32:54;;;;;;;22.63;10.90;;;9.40;99.90;;;;;;4179011;28;20427;-63
2022/11/11 05:34:56;;;;;;;16.13;9.53;;;9.40;99.90;;;;;;4177237;28;20041;-64
2022/11/11 05:36:57;;;;;;;20.00;9.90;;;9.40;99.90;;;;;;4179007;28;20446;-64
2022/11/11 05:38:58;;;;;;;16.23;8.80;;;9.40;99.90;;;;;;4177199;28;20048;-65
2022/11/11 05:40:59;;;;;;;17.20;9.83;;;9.40;99.90;;;;;;4178056;28;20057;-66
2022/11/11 05:43:00;;;;;;;18.13;9.77;;;9.40;99.90;;;;;;4178012;28;20469;-65
2022/11/11 05:45:01;;;;;;;16.37;9.33;;;9.40;99.90;;;;;;4178022;28;20463;-63
2022/11/11 05:47:03;;;;;;;16.47;9.60;;;9.40;99.90;;;;;;4178576;28;20033;-64
2022/11/11 05:49:16;;;;;;;19.47;10.17;;;9.40;99.90;;;;;;4176784;28;20497;-62
2022/11/11 05:51:26;;;;;;;19.70;10.40;;;9.30;99.90;;;;;;4178440;28;20914;-65
2022/11/11 05:53:27;;;;;;;;;;;9.30;99.90;;;;;;4187070;28;20032;-63
2022/11/11 05:55:28;;;;;;;17.20;9.77;;;9.30;99.90;;;;;;4178067;28;20276;-63
2022/11/11 05:57:30;;;;;;;18.60;11.07;;;9.30;99.90;;;;;;4177458;28;20025;-64
2022/11/11 05:59:31;;;;;;;22.10;11.20;;;9.30;99.90;;;;;;4177162;28;20037;-63
2022/11/11 06:01:32;;;;;;;23.03;11.70;;;9.30;99.90;;;;;;4177069;28;20033;-63
2022/11/11 06:03:34;;;;;;;19.87;10.97;;;9.40;99.90;;;;;;4195059;28;20032;-62
2022/11/11 06:05:36;;;;;;;21.43;11.77;;;9.30;99.90;;;;;;4192677;28;20064;-63
2022/11/11 06:07:39;;;;;;;27.53;14.00;;;9.40;99.90;;;;;;4195040;28;20150;-62
2022/11/11 06:09:40;;;;;;;22.93;11.10;;;9.40;99.90;;;;;;4193748;28;20044;-61
2022/11/11 06:11:41;;;;;;;23.80;11.30;;;9.40;99.90;;;;;;4195061;28;20082;-62
2022/11/11 06:13:42;;;;;;;19.13;10.70;;;9.40;99.90;;;;;;4192507;28;20086;-63
2022/11/11 06:15:43;;;;;;;20.93;10.27;;;9.40;99.90;;;;;;4194901;28;20078;-64
2022/11/11 06:17:44;;;;;;;21.17;11.07;;;9.40;99.90;;;;;;4194262;28;20094;-63
2022/11/11 06:19:45;;;;;;;18.87;10.47;;;9.40;99.90;;;;;;4193001;28;20480;-64
2022/11/11 06:21:55;;;;;;;18.33;10.30;;;9.50;99.90;;;;;;4194303;28;20040;-62
2022/11/11 06:23:57;;;;;;;18.80;10.10;;;9.50;99.90;;;;;;4193519;28;20095;-64
2022/11/11 06:26:13;;;;;;;17.40;9.53;;;9.50;99.90;;;;;;4193406;28;20028;-63
2022/11/11 06:28:15;;;;;;;17.23;9.47;;;9.50;99.90;;;;;;4193222;28;20090;-64
2022/11/11 06:30:16;;;;;;;18.47;10.13;;;9.50;99.90;;;;;;4194456;28;20438;-63
2022/11/11 06:32:17;;;;;;;20.60;9.73;;;9.60;99.90;;;;;;4193622;28;20036;-65
2022/11/11 06:34:19;;;;;;;18.03;10.43;;;9.60;99.90;;;;;;4176474;28;20049;-63
2022/11/11 06:36:21;;;;;;;16.77;9.43;;;9.60;99.90;;;;;;4192883;28;20082;-62
2022/11/11 06:38:22;;;;;;;16.67;9.60;;;9.60;99.90;;;;;;4194756;28;20024;-63
2022/11/11 06:40:23;;;;;;;17.30;10.10;;;9.70;99.90;;;;;;4192969;28;20040;-63
2022/11/11 06:42:24;;;;;;;16.03;10.20;;;9.70;99.90;;;;;;4194510;28;20036;-63
2022/11/11 06:44:25;;;;;;;21.57;10.87;;;9.70;99.90;;;;;;4193522;28;20032;-63
2022/11/11 06:46:26;;;;;;;16.60;9.47;;;9.70;99.90;;;;;;4194312;28;20059;-63
2022/11/11 06:48:28;;;;;;;18.03;9.40;;;9.70;99.90;;;;;;4193253;28;20036;-62
2022/11/11 06:50:31;;;;;;;13.97;8.73;;;9.70;99.90;;;;;;4176091;28;20089;-64
2022/11/11 06:52:32;;;;;;;16.30;9.23;;;9.70;99.90;;;;;;4193356;28;20484;-63
2022/11/11 06:54:33;;;;;;;19.97;9.70;;;9.70;99.90;;;;;;4194103;28;20375;-62
2022/11/11 06:56:34;;;;;;;24.30;10.67;;;9.70;99.90;;;;;;4193516;28;20062;-63
2022/11/11 06:58:35;;;;;;;22.37;10.77;;;9.70;99.90;;;;;;4175881;28;20542;-63
2022/11/11 07:00:38;;;;;;;17.23;9.27;;;9.70;99.90;;;;;;4193938;28;20044;-63
2022/11/11 07:02:39;;;;;;;19.30;9.90;;;9.70;99.90;;;;;;4192930;28;20455;-63
2022/11/11 07:04:40;;;;;;;22.20;11.17;;;9.80;99.90;;;;;;4194348;28;20090;-64
2022/11/11 07:06:41;;;;;;;20.83;11.13;;;9.80;99.90;;;;;;4193263;28;20070;-63
2022/11/11 07:08:43;;;;;;;20.37;11.13;;;9.90;99.90;;;;;;4194127;28;20030;-63
2022/11/11 07:10:47;;;;;;;18.93;10.83;;;9.90;99.90;;;;;;4193054;28;20033;-63
2022/11/11 07:12:48;;;;;;;15.80;9.73;;;9.90;99.90;;;;;;4193246;28;20472;-64
2022/11/11 07:14:49;;;;;;;24.07;10.87;;;10.00;99.90;;;;;;4193216;28;20081;-63
2022/11/11 07:16:50;;;;;;;20.63;10.60;;;9.90;99.90;;;;;;4193277;28;20094;-62
2022/11/11 07:18:51;;;;;;;18.03;9.87;;;9.90;99.90;;;;;;4193383;28;20468;-63
2022/11/11 07:20:52;;;;;;;21.43;11.10;;;9.90;99.90;;;;;;4194130;28;20098;-63
2022/11/11 07:22:53;;;;;;;18.10;9.53;;;10.00;99.90;;;;;;4193156;28;20028;-64
2022/11/11 07:24:55;;;;;;;21.47;10.87;;;10.00;99.90;;;;;;4193515;28;20554;-62
2022/11/11 07:26:56;;;;;;;16.87;9.77;;;10.00;99.90;;;;;;4193330;28;20442;-62
2022/11/11 07:28:57;;;;;;;23.73;11.67;;;10.00;99.90;;;;;;4193761;28;20029;-63
2022/11/11 07:30:58;;;;;;;21.67;11.43;;;10.10;99.90;;;;;;4193667;28;20098;-62
2022/11/11 07:32:59;;;;;;;20.33;11.20;;;10.10;99.90;;;;;;4192623;28;20044;-62
2022/11/11 07:35:01;;;;;;;21.37;10.13;;;10.10;99.90;;;;;;4194091;28;20417;-63
2022/11/11 07:37:02;;;;;;;18.67;9.67;;;10.10;99.90;;;;;;4195100;28;20032;-62
2022/11/11 07:39:03;;;;;;;14.63;9.27;;;10.10;99.90;;;;;;4197404;28;20098;-62
2022/11/11 07:41:04;;;;;;;27.47;14.03;;;10.20;99.90;;;;;;4196151;28;20488;-63
2022/11/11 07:43:05;;;;;;;23.30;13.17;;;10.10;99.90;;;;;;4196643;28;20037;-63
2022/11/11 07:45:08;;;;;;;28.13;14.97;;;10.20;99.90;;;;;;4196400;28;20032;-61
2022/11/11 07:47:09;;;;;;;23.50;12.70;;;10.20;99.90;;;;;;4197397;28;20036;-62
2022/11/11 07:49:10;;;;;;;20.40;11.93;;;10.20;99.90;;;;;;4196196;28;20430;-62
2022/11/11 07:51:11;;;;;;;22.40;11.00;;;10.20;99.90;;;;;;4196391;28;20040;-63
2022/11/11 07:53:12;;;;;;;17.93;11.03;;;10.20;99.90;;;;;;4195889;28;20024;-62
2022/11/11 07:55:13;;;;;;;24.33;12.20;;;10.20;99.90;;;;;;4196566;28;20438;-62
2022/11/11 07:57:15;;;;;;;23.33;14.13;;;10.20;99.90;;;;;;4195780;28;20041;-62
2022/11/11 07:59:16;;;;;;;22.60;11.83;;;10.20;99.90;;;;;;4196785;28;20044;-63
2022/11/11 08:01:17;;;;;;;22.90;12.77;;;10.20;99.90;;;;;;4196528;28;20442;-62
2022/11/11 08:03:18;;;;;;;26.50;14.33;;;10.20;99.90;;;;;;4196320;28;20028;-62
2022/11/11 08:05:20;;;;;;;25.97;12.77;;;10.20;99.90;;;;;;4196770;28;20042;-62
2022/11/11 08:07:22;;;;;;;23.87;13.23;;;10.20;99.90;;;;;;4195907;28;20029;-63
2022/11/11 08:09:23;;;;;;;23.57;13.87;;;10.10;99.90;;;;;;4195726;28;20097;-63
2022/11/11 08:13:45;;;;;;;20.00;11.93;;;10.10;99.90;;;;;;4155580;28;20094;-62
2022/11/11 08:15:47;;;;;;;23.80;13.33;;;10.10;99.90;;;;;;4195626;28;20037;-62
2022/11/11 08:17:48;;;;;;;23.07;13.07;;;10.10;99.90;;;;;;4196258;28;20395;-63
2022/11/11 08:19:50;;;;;;;23.67;12.30;;;10.20;99.90;;;;;;4194793;28;20037;-63
2022/11/11 08:21:51;;;;;;;17.03;9.83;;;10.20;99.90;;;;;;4196791;28;20037;-62
2022/11/11 08:23:53;;;;;;;23.07;12.43;;;10.10;99.90;;;;;;4195780;28;20074;-62
2022/11/11 08:25:54;;;;;;;20.83;10.73;;;10.10;99.90;;;;;;4196601;28;20036;-62
2022/11/11 08:27:57;;;;;;;19.87;10.73;;;10.10;99.90;;;;;;4195642;28;20040;-62
2022/11/11 08:29:58;;;;;;;17.03;9.30;;;10.00;99.90;;;;;;4196779;28;20434;-63
2022/11/11 08:31:59;;;;;;;20.83;11.27;;;10.00;99.90;;;;;;4177431;28;20041;-63
2022/11/11 08:34:00;;;;;;;21.20;10.67;;;10.00;99.90;;;;;;4196298;28;20097;-62
2022/11/11 08:36:02;;;;;;;21.57;10.67;;;10.00;99.90;;;;;;4195986;28;20036;-62
2022/11/11 08:38:03;;;;;;;18.30;10.30;;;10.00;99.90;;;;;;4195031;28;20049;-63
2022/11/11 08:40:05;;;;;;;23.07;11.17;;;10.00;99.90;;;;;;4195793;28;20029;-62
2022/11/11 08:42:06;;;;;;;25.47;12.90;;;10.00;99.90;;;;;;4195554;28;20093;-63
2022/11/11 08:44:08;;;;;;;15.53;8.43;;;10.00;99.90;;;;;;4195979;28;20040;-63
2022/11/11 08:46:10;;;;;;;23.33;10.57;;;10.00;99.90;;;;;;4194509;28;20062;-63
2022/11/11 08:48:11;;;;;;;20.27;10.27;;;10.00;99.90;;;;;;4195565;28;20032;-63
2022/11/11 08:50:13;;;;;;;19.07;9.67;;;10.10;99.90;;;;;;4195291;28;20452;-63
2022/11/11 08:52:15;;;;;;;26.13;11.63;;;10.10;99.90;;;;;;4178165;28;20044;-62
2022/11/11 08:54:16;;;;;;;19.90;11.50;;;10.20;99.90;;;;;;4194826;28;20028;-61
2022/11/11 08:56:17;;;;;;;22.90;11.73;;;10.20;99.90;;;;;;4196113;28;20041;-63
2022/11/11 08:58:18;;;;;;;20.23;11.57;;;10.30;99.90;;;;;;4194967;28;20032;-62
2022/11/11 09:00:19;;;;;;;18.60;10.83;;;10.30;99.90;;;;;;4195966;28;20516;-63
2022/11/11 09:02:20;;;;;;;18.77;11.53;;;10.20;99.90;;;;;;4194850;28;20037;-63
2022/11/11 09:04:21;;;;;;;16.93;10.67;;;10.20;99.90;;;;;;4194924;28;20105;-63
2022/11/11 09:06:22;;;;;;;18.27;11.57;;;10.30;99.90;;;;;;4194439;28;20049;-63
2022/11/11 09:08:23;;;;;;;20.07;11.13;;;10.30;99.90;;;;;;4194199;28;20040;-63
2022/11/11 09:10:25;;;;;;;23.47;12.10;;;10.30;99.90;;;;;;4195261;28;20044;-62
2022/11/11 09:12:26;;;;;;;21.73;12.13;;;10.40;99.90;;;;;;4194793;28;20025;-62
2022/11/11 09:14:27;;;;;;;19.00;11.17;;;10.60;99.90;;;;;;4195071;28;20044;-63
2022/11/11 09:16:28;;;;;;;17.40;9.70;;;10.70;99.90;;;;;;4193961;28;20036;-62
2022/11/11 09:18:32;;;;;;;14.83;8.80;;;10.70;99.90;;;;;;4195492;28;20024;-63
2022/11/11 09:20:34;;;;;;;15.40;8.00;;;10.80;99.90;;;;;;4194358;28;20098;-63
2022/11/11 09:22:47;;;;;;;16.57;7.97;;;10.80;99.90;;;;;;4195770;28;20099;-62
2022/11/11 09:24:48;;;;;;;14.03;7.53;;;10.70;99.90;;;;;;4194465;28;20373;-63
2022/11/11 09:26:50;;;;;;;14.17;7.57;;;10.70;99.90;;;;;;4195544;28;20025;-63
2022/11/11 09:28:51;;;;;;;17.10;8.27;;;10.70;99.90;;;;;;4193471;28;20492;-63
2022/11/11 09:30:52;;;;;;;14.80;8.17;;;10.70;99.90;;;;;;4195505;28;20021;-63
2022/11/11 09:32:59;;;;;;;15.83;8.47;;;10.70;99.90;;;;;;4193768;28;20444;-63
2022/11/11 09:35:00;;;;;;;13.80;8.20;;;10.70;99.90;;;;;;4195697;28;20075;-64
2022/11/11 09:37:02;;;;;;;12.13;7.23;;;10.70;99.90;;;;;;4194576;28;20070;-63
2022/11/11 09:39:03;;;;;;;11.87;7.30;;;10.70;99.90;;;;;;4195286;28;20021;-63
2022/11/11 09:41:07;;;;;;;14.67;7.50;;;10.70;99.90;;;;;;4193766;28;20435;-63
2022/11/11 09:43:29;;;;;;;16.50;7.93;;;10.60;99.90;;;;;;4195033;28;20028;-64
2022/11/11 09:45:48;;;;;;;13.20;7.03;;;10.70;99.90;;;;;;4194533;28;20025;-63
2022/11/11 09:48:01;;;;;;;16.60;6.97;;;10.60;99.90;;;;;;4195174;28;20032;-62
2022/11/11 09:50:10;;;;;;;12.50;6.53;;;10.70;99.90;;;;;;4193978;28;20071;-62
2022/11/11 09:52:40;;;;;;;18.03;7.73;;;10.70;99.90;;;;;;4195062;28;20403;-63
2022/11/11 09:55:05;;;;;;;12.07;6.75;;;10.70;99.90;;;;;;4184453;28;20049;-63
2022/11/11 09:57:14;;;;;;;12.93;7.17;;;10.90;99.90;;;;;;4194389;28;20044;-64
2022/11/11 09:59:32;;;;;;;12.40;7.10;;;11.10;99.90;;;;;;4193880;28;20081;-62
2022/11/11 10:01:41;;;;;;;15.80;6.50;;;11.30;99.90;;;;;;4194640;28;20575;-63
2022/11/11 10:03:49;;;;;;;11.00;6.07;;;11.50;99.90;;;;;;4193167;28;20086;-63
2022/11/11 10:06:11;;;;;;;14.80;5.97;;;11.70;99.90;;;;;;4194928;28;20350;-63
2022/11/11 10:08:27;;;;;;;12.20;6.27;;;11.80;99.90;;;;;;4193971;28;20058;-62
2022/11/11 10:10:42;;;;;;;13.20;6.50;;;12.00;99.90;;;;;;4193995;28;20090;-63
2022/11/11 10:12:53;;;;;;;13.33;6.87;;;11.90;99.90;;;;;;4193806;28;20468;-63
2022/11/11 10:14:54;;;;;;;16.73;8.23;;;11.70;99.90;;;;;;4194988;28;20044;-63
2022/11/11 10:17:32;;;;;;;11.90;7.87;;;11.60;99.90;;;;;;4193282;28;20062;-62
2022/11/11 10:20:03;;;;;;;16.90;7.37;;;11.60;99.90;;;;;;4194376;28;20441;-64
2022/11/11 10:22:18;;;;;;;16.27;7.10;;;11.80;99.90;;;;;;4194256;28;20090;-62
2022/11/11 10:24:31;;;;;;;11.83;6.40;;;12.10;99.90;;;;;;4175543;28;20037;-63
2022/11/11 10:26:35;;;;;;;9.67;5.87;;;12.30;99.90;;;;;;4176023;28;20037;-62
2022/11/11 10:28:36;;;;;;;16.90;7.37;;;12.30;99.90;;;;;;4193509;28;20098;-64
2022/11/11 10:30:37;;;;;;;12.47;7.47;;;12.50;99.90;;;;;;4193177;28;20086;-64
2022/11/11 10:32:40;;;;;;;12.83;8.00;;;12.60;99.90;;;;;;4193203;28;20052;-63
2022/11/11 10:34:41;;;;;;;14.47;7.87;;;12.70;99.90;;;;;;4192506;28;20480;-62
2022/11/11 10:36:53;;;;;;;9.67;6.63;;;12.90;99.90;;;;;;4194232;28;20020;-63
2022/11/11 10:39:02;;;;;;;12.80;6.07;;;12.70;99.90;;;;;;4192227;28;20048;-62
2022/11/11 10:41:12;;;;;;;9.67;6.50;;;12.60;99.90;;;;;;4193859;28;20040;-62
2022/11/11 10:43:23;;;;;;;10.35;5.85;;;12.60;99.90;;;;;;4193206;28;20025;-64
2022/11/11 10:45:44;;;;;;;7.97;5.77;;;12.70;99.90;;;;;;4193555;28;20036;-62
2022/11/11 10:47:48;;;;;;;;;;;12.60;99.90;;;;;;4193553;28;20074;-63
2022/11/11 10:49:57;;;;;;;12.17;5.63;;;12.60;99.90;;;;;;4194156;28;20309;-62
2022/11/11 10:52:08;;;;;;;14.23;6.50;;;12.70;99.90;;;;;;4193508;28;20110;-62
2022/11/11 10:54:21;;;;;;;10.23;5.67;;;12.70;99.90;;;;;;4193186;28;20396;-64
2022/11/11 10:56:42;;;;;;;10.50;5.77;;;12.60;99.90;;;;;;4193055;28;20074;-61
2022/11/11 10:58:59;;;;;;;18.13;7.20;;;12.70;99.90;;;;;;4193585;28;20077;-63
2022/11/11 11:01:02;;;;;;;12.23;6.90;;;12.70;99.90;;;;;;4193813;28;20434;-63
2022/11/11 11:03:10;;;;;;;9.23;6.07;;;12.70;99.90;;;;;;4192890;28;20085;-62
2022/11/11 11:05:19;;;;;;;12.20;5.73;;;12.70;99.90;;;;;;4193247;28;20118;-63
2022/11/11 11:07:28;;;;;;;12.63;6.03;;;12.70;99.90;;;;;;4194016;28;20025;-63
2022/11/11 11:09:38;;;;;;;9.53;5.70;;;12.80;99.90;;;;;;4193658;28;20040;-63
2022/11/11 11:11:58;;;;;;;10.05;6.07;;;12.60;99.90;;;;;;4192476;28;20048;-62
2022/11/11 11:14:11;;;;;;;9.17;5.50;;;12.50;99.90;;;;;;4193390;28;20033;-63
2022/11/11 11:16:19;;;;;;;10.57;5.77;;;12.40;99.90;;;;;;4193365;28;20509;-62
2022/11/11 11:18:21;;;;;;;9.70;5.07;;;12.40;99.90;;;;;;4192958;28;21074;-64
2022/11/11 11:20:23;;;;;;;8.73;4.87;;;12.50;99.90;;;;;;4192591;28;20480;-63
2022/11/11 11:22:48;;;;;;;10.07;5.27;;;12.50;99.90;;;;;;4193077;28;20037;-63
2022/11/11 11:24:49;;;;;;;9.57;5.77;;;12.60;99.90;;;;;;4192364;28;20106;-63
2022/11/11 11:26:54;;;;;;;10.03;5.23;;;12.50;99.90;;;;;;4193056;28;20411;-63
2022/11/11 11:28:58;;;;;;;8.53;5.63;;;12.50;99.90;;;;;;4193538;28;20024;-63
2022/11/11 11:31:02;;;;;;;20.43;5.77;;;12.60;99.90;;;;;;4193099;28;20094;-63
2022/11/11 11:33:07;;;;;;;8.73;5.13;;;12.50;99.90;;;;;;4193094;28;20079;-63
2022/11/11 11:35:08;;;;;;;10.10;5.27;;;12.50;99.90;;;;;;4192687;28;20044;-63
2022/11/11 11:37:09;;;;;;;9.37;5.43;;;12.50;99.90;;;;;;4193108;28;20102;-63
2022/11/11 11:39:10;;;;;;;9.40;5.10;;;12.50;99.90;;;;;;4192857;28;20032;-63
2022/11/11 11:41:11;;;;;;;12.77;4.03;;;12.60;99.90;;;;;;4193158;28;20041;-64
2022/11/11 11:43:33;;;;;;;4.87;3.33;;;12.60;99.90;;;;;;4192885;28;20075;-62
2022/11/11 11:45:34;;;;;;;7.93;3.40;;;12.80;99.90;;;;;;4193234;28;20044;-63
2022/11/11 11:47:56;;;;;;;9.40;3.53;;;12.90;99.90;;;;;;4192161;28;20067;-63
2022/11/11 11:50:11;;;;;;;24.83;6.13;;;13.00;99.90;;;;;;4194029;28;20658;-63
2022/11/11 11:52:17;;;;;;;20.63;5.57;;;13.00;99.90;;;;;;4192155;28;20538;-63
2022/11/11 11:54:41;;;;;;;11.57;4.83;;;13.00;99.90;;;;;;4193385;28;20040;-62
2022/11/11 11:56:46;;;;;;;10.67;5.00;;;13.10;99.90;;;;;;4192519;28;20028;-64
2022/11/11 11:58:56;;;;;;;7.07;3.50;;;13.20;99.90;;;;;;4193798;28;20074;-64